createdAt,value
2022-08-19T00:01:31.088Z,13.05
2022-08-19T00:03:59.726Z,12.75
2022-08-19T00:06:27.747Z,13.43
2022-08-19T00:08:54.449Z,12.93
2022-08-19T00:11:25.309Z,14.48
2022-08-19T00:13:53.294Z,11.75
2022-08-19T00:16:26.115Z,12.55
2022-08-19T00:18:54.479Z,14.25
2022-08-19T00:21:21.020Z,13.15
2022-08-19T00:23:47.536Z,12.75
2022-08-19T00:26:14.867Z,13.95
2022-08-19T00:28:41.482Z,12.48
2022-08-19T00:31:09.189Z,12.48
2022-08-19T00:33:35.899Z,13.82
2022-08-19T00:36:07.157Z,13.32
2022-08-19T00:38:37.945Z,13.05
2022-08-19T00:41:06.808Z,12.82
2022-08-19T00:43:33.638Z,11.95
2022-08-19T00:46:00.247Z,12.35
2022-08-19T00:48:26.790Z,12.43
2022-08-19T00:50:56.389Z,11.77
2022-08-19T00:53:27.316Z,12.55
2022-08-19T00:55:57.374Z,11.45
2022-08-19T00:58:28.288Z,12.82
2022-08-19T01:00:54.981Z,15.15
2022-08-19T01:03:22.678Z,12.32
2022-08-19T01:05:51.344Z,14.20
2022-08-19T01:08:19.699Z,13.48
2022-08-19T01:10:49.783Z,13.30
2022-08-19T01:13:19.918Z,14.60
2022-08-19T01:15:51.188Z,12.38
2022-08-19T01:18:20.242Z,12.40
2022-08-19T01:20:47.588Z,13.27
2022-08-19T01:23:14.826Z,12.15
2022-08-19T01:25:50.833Z,13.13
2022-08-19T01:28:33.851Z,12.27
2022-08-19T01:31:01.069Z,12.18
2022-08-19T01:33:34.608Z,13.80
2022-08-19T01:36:48.242Z,12.85
2022-08-19T01:39:18.620Z,12.45
2022-08-19T01:41:45.161Z,11.70
2022-08-19T01:44:17.960Z,10.85
2022-08-19T01:46:46.286Z,12.50
2022-08-19T01:49:12.905Z,11.50
2022-08-19T01:51:40.501Z,12.40
2022-08-19T01:54:13.798Z,12.27
2022-08-19T01:56:52.123Z,12.15
2022-08-19T01:59:22.082Z,11.50
2022-08-19T02:01:48.548Z,11.07
2022-08-19T02:04:15.517Z,11.35
2022-08-19T02:06:42.062Z,10.30
2022-08-19T02:09:09.384Z,9.48
2022-08-19T02:11:38.398Z,11.10
2022-08-19T02:14:06.876Z,10.50
2022-08-19T02:16:34.128Z,12.07
2022-08-19T02:19:03.131Z,13.63
2022-08-19T02:21:30.652Z,12.30
2022-08-19T02:23:57.758Z,12.52
2022-08-19T02:26:24.456Z,12.35
2022-08-19T02:28:50.989Z,12.90
2022-08-19T02:31:21.285Z,12.30
2022-08-19T02:33:48.386Z,12.57
2022-08-19T02:36:16.918Z,11.95
2022-08-19T02:38:54.686Z,12.77
2022-08-19T02:41:27.780Z,14.35
2022-08-19T02:44:30.636Z,12.02
2022-08-19T02:46:48.296Z,13.43
2022-08-19T02:49:17.239Z,13.85
2022-08-19T02:51:45.320Z,13.68
2022-08-19T02:54:13.704Z,12.07
2022-08-19T02:56:42.390Z,12.43
2022-08-19T02:59:12.757Z,13.73
2022-08-19T03:01:42.239Z,12.90
2022-08-19T03:04:12.851Z,10.82
2022-08-19T03:06:41.069Z,11.40
2022-08-19T03:09:08.339Z,12.02
2022-08-19T03:11:35.601Z,11.70
2022-08-19T03:14:03.950Z,11.15
2022-08-19T03:16:33.434Z,11.50
2022-08-19T03:19:02.401Z,11.80
2022-08-19T03:21:34.910Z,12.00
2022-08-19T03:24:04.958Z,11.43
2022-08-19T03:26:31.984Z,11.35
2022-08-19T03:28:59.112Z,11.23
2022-08-19T03:31:44.190Z,11.75
2022-08-19T03:34:14.923Z,11.40
2022-08-19T03:36:41.725Z,11.73
2022-08-19T03:39:09.444Z,10.70
2022-08-19T03:41:45.876Z,10.80
2022-08-19T03:44:19.426Z,12.25
2022-08-19T03:46:58.178Z,13.07
2022-08-19T03:49:28.383Z,11.13
2022-08-19T03:51:57.496Z,11.30
2022-08-19T03:54:26.287Z,8.60
2022-08-19T03:56:55.613Z,11.07
2022-08-19T03:59:29.335Z,10.80
2022-08-19T04:01:58.711Z,10.48
2022-08-19T04:04:27.233Z,10.65
2022-08-19T04:06:56.686Z,11.68
2022-08-19T04:09:23.277Z,8.93
2022-08-19T04:11:55.331Z,9.98
2022-08-19T04:14:25.091Z,9.77
2022-08-19T04:16:52.801Z,10.20
2022-08-19T04:19:20.094Z,12.70
2022-08-19T04:21:49.251Z,12.88
2022-08-19T04:24:16.384Z,14.25
2022-08-19T04:26:42.875Z,14.82
2022-08-19T04:29:13.088Z,14.55
2022-08-19T04:31:41.757Z,15.80
2022-08-19T04:34:11.738Z,14.52
2022-08-19T04:36:41.431Z,13.15
2022-08-19T04:39:11.626Z,13.75
2022-08-19T04:41:56.638Z,13.57
2022-08-19T04:44:23.170Z,14.65
2022-08-19T04:46:51.735Z,14.43
2022-08-19T04:49:26.398Z,14.38
2022-08-19T04:51:55.177Z,13.60
2022-08-19T04:54:38.763Z,12.55
2022-08-19T04:57:09.333Z,13.30
2022-08-19T04:59:37.314Z,13.95
2022-08-19T05:02:04.776Z,14.43
2022-08-19T05:04:33.708Z,14.88
2022-08-19T05:07:01.929Z,11.45
2022-08-19T05:09:53.310Z,13.90
2022-08-19T05:12:16.556Z,13.13
2022-08-19T05:14:43.294Z,12.95
2022-08-19T05:17:27.028Z,11.95
2022-08-19T05:20:13.748Z,14.27
2022-08-19T05:22:41.398Z,12.80
2022-08-19T05:25:14.765Z,12.10
2022-08-19T05:27:42.825Z,13.20
2022-08-19T05:30:10.799Z,12.00
2022-08-19T05:32:37.524Z,11.90
2022-08-19T05:35:05.084Z,10.20
2022-08-19T05:37:31.569Z,11.50
2022-08-19T05:39:58.552Z,12.98
2022-08-19T05:42:25.120Z,12.20
2022-08-19T05:44:53.041Z,12.88
2022-08-19T05:47:21.034Z,12.80
2022-08-19T05:49:50.768Z,11.48
2022-08-19T05:52:19.016Z,9.95
2022-08-19T05:54:51.292Z,10.57
2022-08-19T05:57:20.036Z,10.73
2022-08-19T05:59:53.192Z,9.18
2022-08-19T06:02:26.492Z,8.25
2022-08-19T06:04:54.196Z,9.43
2022-08-19T06:07:21.005Z,9.00
2022-08-19T06:09:59.806Z,9.10
2022-08-19T06:12:35.332Z,9.10
2022-08-19T06:15:09.596Z,8.77
2022-08-19T06:17:36.205Z,9.65
2022-08-19T06:20:09.615Z,10.25
2022-08-19T06:22:44.281Z,9.77
2022-08-19T06:25:11.758Z,10.38
2022-08-19T06:27:48.284Z,9.23
2022-08-19T06:30:25.139Z,8.35
2022-08-19T06:32:51.770Z,9.10
2022-08-19T06:35:19.697Z,7.93
2022-08-19T06:37:46.327Z,8.82
2022-08-19T06:40:13.398Z,7.35
2022-08-19T06:42:40.286Z,8.10
2022-08-19T06:45:19.989Z,8.30
2022-08-19T06:47:55.124Z,7.25
2022-08-19T06:50:23.028Z,7.38
2022-08-19T06:52:51.783Z,7.80
2022-08-19T06:55:19.844Z,6.63
2022-08-19T06:57:47.115Z,7.80
2022-08-19T07:00:16.849Z,7.82
2022-08-19T07:02:48.293Z,7.75
2022-08-19T07:05:20.321Z,7.38
2022-08-19T07:07:47.558Z,7.95
2022-08-19T07:10:14.801Z,7.68
2022-08-19T07:12:42.127Z,10.07
2022-08-19T07:15:11.826Z,11.80
2022-08-19T07:17:40.107Z,16.08
2022-08-19T07:20:09.671Z,13.05
2022-08-19T07:22:38.436Z,9.00
2022-08-19T07:25:07.241Z,11.38
2022-08-19T07:27:34.825Z,11.15
2022-08-19T07:30:01.902Z,12.57
2022-08-19T07:32:28.445Z,12.45
2022-08-19T07:34:56.613Z,17.02
2022-08-19T07:37:31.997Z,10.07
2022-08-19T07:40:00.269Z,9.63
2022-08-19T07:42:27.565Z,7.63
2022-08-19T07:44:54.179Z,8.70
2022-08-19T07:47:50.228Z,9.02
2022-08-19T07:50:12.018Z,9.80
2022-08-19T07:52:40.330Z,10.10
2022-08-19T07:55:40.035Z,11.55
2022-08-19T07:57:55.938Z,9.07
2022-08-19T08:00:24.453Z,8.43
2022-08-19T08:02:52.201Z,9.30
2022-08-19T08:05:43.381Z,7.43
2022-08-19T08:08:44.080Z,8.52
2022-08-19T08:11:15.724Z,9.63
2022-08-19T08:13:42.567Z,8.82
2022-08-19T08:16:10.182Z,9.23
2022-08-19T08:18:43.320Z,12.13
2022-08-19T08:21:17.028Z,9.07
2022-08-19T08:23:43.923Z,8.35
2022-08-19T08:26:11.891Z,13.10
2022-08-19T08:28:39.543Z,12.10
2022-08-19T08:31:09.559Z,11.13
2022-08-19T08:33:36.330Z,11.13
2022-08-19T08:36:06.260Z,10.43
2022-08-19T08:38:38.950Z,10.18
2022-08-19T08:41:23.896Z,9.70
2022-08-19T08:43:52.806Z,8.65
2022-08-19T08:46:34.956Z,11.77
2022-08-19T08:49:10.210Z,8.97
2022-08-19T08:51:48.691Z,9.27
2022-08-19T08:54:38.126Z,8.98
2022-08-19T08:57:12.484Z,8.52
2022-08-19T08:59:42.029Z,9.40
2022-08-19T09:02:09.159Z,10.95
2022-08-19T09:04:37.335Z,11.82
2022-08-19T09:07:46.907Z,11.68
2022-08-19T09:10:26.162Z,11.57
2022-08-19T09:13:24.436Z,13.38
2022-08-19T09:16:02.319Z,12.60
2022-08-19T09:18:53.266Z,11.88
2022-08-19T09:21:26.032Z,12.02
2022-08-19T09:24:00.278Z,13.45
2022-08-19T09:26:47.568Z,14.85
2022-08-19T09:29:26.326Z,12.33
2022-08-19T09:31:55.744Z,12.68
2022-08-19T09:34:22.560Z,12.15
2022-08-19T09:36:53.970Z,12.48
2022-08-19T09:39:21.822Z,14.07
2022-08-19T09:41:50.569Z,11.73
2022-08-19T09:44:18.171Z,12.82
2022-08-19T09:46:47.864Z,13.90
2022-08-19T09:49:15.330Z,13.77
2022-08-19T09:51:41.795Z,13.48
2022-08-19T09:54:11.338Z,11.95
2022-08-19T09:56:38.270Z,12.07
2022-08-19T09:59:05.025Z,10.70
2022-08-19T10:01:33.296Z,13.50
2022-08-19T10:04:04.451Z,15.80
2022-08-19T10:06:44.136Z,15.45
2022-08-19T10:09:17.216Z,15.40
2022-08-19T10:11:54.908Z,17.08
2022-08-19T10:14:24.261Z,15.07
2022-08-19T10:16:51.558Z,13.23
2022-08-19T10:19:25.814Z,14.90
2022-08-19T10:21:53.135Z,14.00
2022-08-19T10:24:21.013Z,15.18
2022-08-19T10:26:49.394Z,15.23
2022-08-19T10:29:32.012Z,13.75
2022-08-19T10:32:05.411Z,13.68
2022-08-19T10:34:48.832Z,12.98
2022-08-19T10:37:29.194Z,13.18
2022-08-19T10:39:59.586Z,14.80
2022-08-19T10:42:26.122Z,14.77
2022-08-19T10:44:52.687Z,13.00
2022-08-19T10:47:25.749Z,12.48
2022-08-19T10:50:14.684Z,12.23
2022-08-19T10:52:49.498Z,13.48
2022-08-19T10:55:38.713Z,14.75
2022-08-19T10:58:10.636Z,14.88
2022-08-19T11:00:37.952Z,13.45
2022-08-19T11:03:04.592Z,12.95
2022-08-19T11:05:31.800Z,13.48
2022-08-19T11:08:23.303Z,14.00
2022-08-19T11:10:54.428Z,14.77
2022-08-19T11:13:21.320Z,13.38
2022-08-19T11:15:48.288Z,12.80
2022-08-19T11:18:14.776Z,12.68
2022-08-19T11:20:41.188Z,11.63
2022-08-19T11:23:07.933Z,11.85
2022-08-19T11:25:35.366Z,11.88
2022-08-19T11:28:01.819Z,11.20
2022-08-19T11:30:28.783Z,9.35
2022-08-19T11:32:55.424Z,8.88
2022-08-19T11:35:24.156Z,9.25
2022-08-19T11:37:50.716Z,9.57
2022-08-19T11:40:17.378Z,9.70
2022-08-19T11:42:56.409Z,8.13
2022-08-19T11:45:28.840Z,7.50
2022-08-19T11:47:56.001Z,7.80
2022-08-19T11:50:24.347Z,7.55
2022-08-19T11:52:51.920Z,7.68
2022-08-19T11:55:18.445Z,7.40
2022-08-19T11:57:45.133Z,7.10
2022-08-19T12:00:13.978Z,7.28
2022-08-19T12:02:40.904Z,7.55
2022-08-19T12:05:12.170Z,6.55
2022-08-19T12:07:39.120Z,7.10
2022-08-19T12:10:05.994Z,7.38
2022-08-19T12:12:32.474Z,6.32
2022-08-19T12:14:59.534Z,5.88
2022-08-19T12:17:27.942Z,6.20
2022-08-19T12:19:55.136Z,6.82
2022-08-19T12:22:22.431Z,7.18
2022-08-19T12:24:51.638Z,6.90
2022-08-19T12:27:20.306Z,6.38
2022-08-19T12:30:01.272Z,6.53
2022-08-19T12:32:27.769Z,5.97
2022-08-19T12:34:54.915Z,5.93
2022-08-19T12:37:21.695Z,4.95
2022-08-19T12:39:48.344Z,5.68
2022-08-19T12:42:15.760Z,10.95
2022-08-19T12:44:43.551Z,6.35
2022-08-19T12:47:13.098Z,5.30
2022-08-19T12:49:52.618Z,4.78
2022-08-19T12:52:24.683Z,5.75
2022-08-19T12:54:54.071Z,5.28
2022-08-19T12:57:23.764Z,5.00
2022-08-19T12:59:58.324Z,4.63
2022-08-19T13:02:24.776Z,5.20
2022-08-19T13:04:51.389Z,4.85
2022-08-19T13:07:18.005Z,5.35
2022-08-19T13:09:44.494Z,4.53
2022-08-19T13:12:13.843Z,4.72
2022-08-19T13:14:41.257Z,4.18
2022-08-19T13:17:09.397Z,3.92
2022-08-19T13:19:37.859Z,3.80
2022-08-19T13:22:04.417Z,4.60
2022-08-19T13:24:42.865Z,5.13
2022-08-19T13:27:11.795Z,4.10
2022-08-19T13:29:59.003Z,4.20
2022-08-19T13:32:44.063Z,4.47
2022-08-19T13:35:14.915Z,4.22
2022-08-19T13:37:43.647Z,4.10
2022-08-19T13:40:24.990Z,4.22
2022-08-19T13:42:54.905Z,4.97
2022-08-19T13:45:24.069Z,3.22
2022-08-19T13:47:58.440Z,4.03
2022-08-19T13:50:30.001Z,4.40
2022-08-19T13:52:57.266Z,4.22
2022-08-19T13:55:25.343Z,4.10
2022-08-19T13:57:54.179Z,4.47
2022-08-19T14:00:22.789Z,4.30
2022-08-19T14:02:52.323Z,3.78
2022-08-19T14:05:20.773Z,4.10
2022-08-19T14:07:49.223Z,4.70
2022-08-19T14:10:17.264Z,4.60
2022-08-19T14:12:44.515Z,4.53
2022-08-19T14:15:12.600Z,5.20
2022-08-19T14:18:10.413Z,4.90
2022-08-19T14:20:44.305Z,5.55
2022-08-19T14:23:13.105Z,6.10
2022-08-19T14:25:39.541Z,5.53
2022-08-19T14:28:44.530Z,6.30
2022-08-19T14:31:19.299Z,6.85
2022-08-19T14:33:47.968Z,6.28
2022-08-19T14:36:14.830Z,6.93
2022-08-19T14:38:41.756Z,6.53
2022-08-19T14:41:08.649Z,5.90
2022-08-19T14:43:35.466Z,6.35
2022-08-19T14:46:02.616Z,6.38
2022-08-19T14:48:29.242Z,7.03
2022-08-19T14:50:55.961Z,5.53
2022-08-19T14:53:22.518Z,5.07
2022-08-19T14:55:49.320Z,4.68
2022-08-19T14:58:29.217Z,4.85
2022-08-19T15:01:00.528Z,5.25
2022-08-19T15:03:27.918Z,5.80
2022-08-19T15:05:55.518Z,5.90
2022-08-19T15:08:23.400Z,5.70
2022-08-19T15:10:50.098Z,4.57
2022-08-19T15:13:16.754Z,4.72
2022-08-19T15:15:43.635Z,5.20
2022-08-19T15:18:11.973Z,4.93
2022-08-19T15:20:39.089Z,5.18
2022-08-19T15:23:08.884Z,5.90
2022-08-19T15:25:35.303Z,5.53
2022-08-19T15:28:01.862Z,5.78
2022-08-19T15:30:29.772Z,5.10
2022-08-19T15:33:00.198Z,5.38
2022-08-19T15:35:26.884Z,5.10
2022-08-19T15:37:54.780Z,5.78
2022-08-19T15:40:23.688Z,4.70
2022-08-19T15:42:50.789Z,4.75
2022-08-19T15:45:18.943Z,4.60
2022-08-19T15:47:45.607Z,5.15
2022-08-19T15:50:16.214Z,5.25
2022-08-19T15:52:51.913Z,5.25
2022-08-19T15:55:32.638Z,5.78
2022-08-19T15:58:28.239Z,6.28
2022-08-19T16:01:27.179Z,6.20
2022-08-19T16:04:15.846Z,7.50
2022-08-19T16:06:48.689Z,5.90
2022-08-19T16:09:17.061Z,6.13
2022-08-19T16:11:45.911Z,6.28
2022-08-19T16:14:16.240Z,6.05
2022-08-19T16:16:44.460Z,5.85
2022-08-19T16:19:11.956Z,7.22
2022-08-19T16:21:41.871Z,6.88
2022-08-19T16:24:11.919Z,6.45
2022-08-19T16:26:39.297Z,6.47
2022-08-19T16:29:08.768Z,6.68
2022-08-19T16:31:39.559Z,6.93
2022-08-19T16:34:06.376Z,8.27
2022-08-19T16:36:33.375Z,7.05
2022-08-19T16:39:00.933Z,8.13
2022-08-19T16:41:28.307Z,7.03
2022-08-19T16:43:55.334Z,6.70
2022-08-19T16:46:23.309Z,7.03
2022-08-19T16:48:54.649Z,6.95
2022-08-19T16:51:22.615Z,6.97
2022-08-19T16:53:49.831Z,6.40
2022-08-19T16:56:16.320Z,6.22
2022-08-19T16:58:46.295Z,6.40
2022-08-19T17:01:16.230Z,6.00
2022-08-19T17:03:42.830Z,6.25
2022-08-19T17:06:15.887Z,5.57
2022-08-19T17:08:48.602Z,5.85
2022-08-19T17:11:18.538Z,5.60
2022-08-19T17:13:47.685Z,6.55
2022-08-19T17:16:16.821Z,5.85
2022-08-19T17:18:43.832Z,5.72
2022-08-19T17:21:11.151Z,5.57
2022-08-19T17:23:43.752Z,4.95
2022-08-19T17:26:15.901Z,4.88
2022-08-19T17:28:46.182Z,4.88
2022-08-19T17:31:12.697Z,4.28
2022-08-19T17:33:41.308Z,4.85
2022-08-19T17:36:08.565Z,4.75
2022-08-19T17:38:35.755Z,5.13
2022-08-19T17:41:06.325Z,5.35
2022-08-19T17:43:38.952Z,6.00
2022-08-19T17:46:11.221Z,6.07
2022-08-19T17:48:39.363Z,4.78
2022-08-19T17:51:18.100Z,5.40
2022-08-19T17:53:52.896Z,5.03
2022-08-19T17:56:20.453Z,5.15
2022-08-19T17:59:00.105Z,5.63
2022-08-19T18:01:43.953Z,5.15
2022-08-19T18:04:16.992Z,4.70
2022-08-19T18:06:45.750Z,4.85
2022-08-19T18:09:20.731Z,4.60
2022-08-19T18:11:47.348Z,4.70
2022-08-19T18:14:19.077Z,5.13
2022-08-19T18:16:46.433Z,5.07
2022-08-19T18:19:12.928Z,5.13
2022-08-19T18:21:40.669Z,5.68
2022-08-19T18:24:07.967Z,5.43
2022-08-19T18:26:34.817Z,5.93
2022-08-19T18:29:01.921Z,6.07
2022-08-19T18:31:29.004Z,6.95
2022-08-19T18:33:55.572Z,5.90
2022-08-19T18:36:50.058Z,5.10
2022-08-19T18:39:29.424Z,5.55
2022-08-19T18:42:15.172Z,5.40
2022-08-19T18:45:00.424Z,5.30
2022-08-19T18:47:46.193Z,5.43
2022-08-19T18:50:13.893Z,5.43
2022-08-19T18:52:40.608Z,5.75
2022-08-19T18:55:08.059Z,6.00
2022-08-19T18:57:35.120Z,5.97
2022-08-19T19:00:03.858Z,5.85
2022-08-19T19:02:38.784Z,5.60
2022-08-19T19:05:07.735Z,6.22
2022-08-19T19:07:35.246Z,5.90
2022-08-19T19:10:02.361Z,5.53
2022-08-19T19:12:29.640Z,5.47
2022-08-19T19:14:57.967Z,6.40
2022-08-19T19:17:28.210Z,6.47
2022-08-19T19:20:04.152Z,6.40
2022-08-19T19:22:31.076Z,6.53
2022-08-19T19:24:59.227Z,5.57
2022-08-19T19:27:25.855Z,5.85
2022-08-19T19:29:52.761Z,6.03
2022-08-19T19:32:36.959Z,5.88
2022-08-19T19:35:06.858Z,6.07
2022-08-19T19:37:33.456Z,6.20
2022-08-19T19:40:00.009Z,6.30
2022-08-19T19:42:26.623Z,6.45
2022-08-19T19:44:55.824Z,6.25
2022-08-19T19:47:24.699Z,6.32
2022-08-19T19:50:13.186Z,6.55
2022-08-19T19:52:45.474Z,7.05
2022-08-19T19:55:17.887Z,7.70
2022-08-19T19:57:49.003Z,7.07
2022-08-19T20:00:19.613Z,8.20
2022-08-19T20:02:50.199Z,7.82
2022-08-19T20:05:20.704Z,6.97
2022-08-19T20:08:05.968Z,7.07
2022-08-19T20:10:33.285Z,8.35
2022-08-19T20:13:02.690Z,8.77
2022-08-19T20:15:31.995Z,10.13
2022-08-19T20:18:00.037Z,7.90
2022-08-19T20:20:26.960Z,9.23
2022-08-19T20:22:53.840Z,7.35
2022-08-19T20:25:22.365Z,6.55
2022-08-19T20:27:49.732Z,6.88
2022-08-19T20:30:19.707Z,6.80
2022-08-19T20:32:47.493Z,6.75
2022-08-19T20:35:16.659Z,6.82
2022-08-19T20:37:43.108Z,7.25
2022-08-19T20:40:11.253Z,9.07
2022-08-19T20:42:40.332Z,8.68
2022-08-19T20:45:19.688Z,8.63
2022-08-19T20:47:56.286Z,6.72
2022-08-19T20:50:23.089Z,5.97
2022-08-19T20:52:53.530Z,6.75
2022-08-19T20:55:22.080Z,5.70
2022-08-19T20:57:49.071Z,6.43
2022-08-19T21:00:15.763Z,4.40
2022-08-19T21:02:42.348Z,5.00
2022-08-19T21:05:09.002Z,5.18
2022-08-19T21:07:39.209Z,4.95
2022-08-19T21:10:07.385Z,4.82
2022-08-19T21:12:33.882Z,4.82
2022-08-19T21:15:00.401Z,4.60
2022-08-19T21:17:26.813Z,4.40
2022-08-19T21:19:53.279Z,4.90
2022-08-19T21:22:19.739Z,4.65
2022-08-19T21:24:46.185Z,4.65
2022-08-19T21:27:12.671Z,4.28
2022-08-19T21:29:40.435Z,4.65
2022-08-19T21:32:07.523Z,4.43
2022-08-19T21:34:34.166Z,5.63
2022-08-19T21:37:00.618Z,4.60
2022-08-19T21:39:27.187Z,4.63
2022-08-19T21:41:54.303Z,4.03
2022-08-19T21:44:21.184Z,4.20
2022-08-19T21:46:50.540Z,3.72
2022-08-19T21:49:17.476Z,3.97
2022-08-19T21:51:44.114Z,3.65
2022-08-19T21:54:13.960Z,4.43
2022-08-19T21:56:41.323Z,3.90
2022-08-19T21:59:08.378Z,3.90
2022-08-19T22:01:34.928Z,4.60
2022-08-19T22:04:01.399Z,3.67
2022-08-19T22:06:27.917Z,3.50
2022-08-19T22:08:55.516Z,4.07
2022-08-19T22:11:24.129Z,3.55
2022-08-19T22:13:53.667Z,3.65
2022-08-19T22:16:20.843Z,3.85
2022-08-19T22:18:48.354Z,3.53
2022-08-19T22:21:14.984Z,4.00
2022-08-19T22:23:47.867Z,3.90
2022-08-19T22:26:16.709Z,3.50
2022-08-19T22:28:43.905Z,4.30
2022-08-19T22:31:11.132Z,3.65
2022-08-19T22:33:38.310Z,3.30
2022-08-19T22:36:07.587Z,3.88
2022-08-19T22:38:35.010Z,4.00
2022-08-19T22:41:01.952Z,3.45
2022-08-19T22:43:31.713Z,3.45
2022-08-19T22:45:59.725Z,3.50
2022-08-19T22:48:29.329Z,3.13
2022-08-19T22:51:15.296Z,3.63
2022-08-19T22:53:45.193Z,4.15
2022-08-19T22:56:15.355Z,3.50
2022-08-19T22:58:43.528Z,3.80
2022-08-19T23:01:11.561Z,2.75
2022-08-19T23:03:43.669Z,2.95
2022-08-19T23:06:10.748Z,2.67
2022-08-19T23:08:39.582Z,2.75
2022-08-19T23:11:06.379Z,2.60
2022-08-19T23:13:32.827Z,3.10
2022-08-19T23:15:59.394Z,3.47
2022-08-19T23:18:26.526Z,3.13
2022-08-19T23:20:54.606Z,2.88
2022-08-19T23:23:24.737Z,2.60
2022-08-19T23:25:53.385Z,2.80
2022-08-19T23:28:39.044Z,2.90
2022-08-19T23:31:06.400Z,2.90
2022-08-19T23:33:50.841Z,2.88
2022-08-19T23:36:19.607Z,3.00
2022-08-19T23:38:48.001Z,3.40
2022-08-19T23:41:16.374Z,3.40
2022-08-19T23:43:44.338Z,3.42
2022-08-19T23:46:14.347Z,3.05
2022-08-19T23:48:54.762Z,2.78
2022-08-19T23:51:21.190Z,2.78
2022-08-19T23:53:47.724Z,2.85
2022-08-19T23:56:14.215Z,2.90
2022-08-19T23:58:40.888Z,3.10
